• Join FlightAware (Why Join?)
  • Login
  • US Flag 
Rudolph Flight #1: Arrived! 
06:34AM EST


 

Airport Tracker/Info


-or-


 

Live Flight TrackerFlight Track Log ✈ UAL310 ✈ 02-Jul-2013 ✈ KDEN - KLGA

Flight Track Log - Related Links

Times and Time Zones

All times are in EDT time to prevent confusion due to time zone crossing. See the UAL310 flight status page for this flight to view local times or setup timezone preferences in your user account.

Time Position Orientation Groundspeed Altitude Reporting Facility
EDT Latitude Longitude Course Direction KTS MPH feet Rate Location/Type
01:56PM 39.8833 -104.5667 72° East 210 242 6,900  Level Denver TRACON
01:57PM 39.8833 -104.4833 90° East 252 290 9,200 1,980 Climbing Denver TRACON
01:58PM 39.8667 -104.3833 102° East 299 344 10,900 1,980 Climbing Denver TRACON
02:00PM 39.8667 -103.8895 90° East  Level FlightAware Approximate
02:00PM 39.8628 -104.2072 92° East 349 402 14,000  Level Denver Center
02:01PM 39.8824 -103.7371 72° East  Level FlightAware Approximate
02:01PM 39.8678 -104.0733 87° East 347 399 16,700  Level Denver Center
02:02PM 39.8736 -103.9406 87° East 368 423 18,200 1,620 Climbing Denver Center
02:03PM 39.8806 -103.7864 87° East 398 458 20,100 1,740 Climbing Denver Center
02:04PM 39.8944 -103.6383 83° East 394 453 21,900 1,680 Climbing Denver Center
02:05PM 39.9106 -103.4939 82° East 418 481 23,600 1,740 Climbing Denver Center
02:06PM 39.9300 -103.3200 82° East 429 494 25,500 1,620 Climbing Denver Center
02:07PM 39.9472 -103.1689 81° East 439 505 27,000 1,380 Climbing Denver Center
02:08PM 39.9636 -103.0147 82° East 447 514 28,400 1,440 Climbing Denver Center
02:09PM 39.9839 -102.8353 82° East 450 518 30,000 1,560 Climbing Denver Center
02:10PM 40.0003 -102.6800 82° East 452 520 31,700 1,620 Climbing Denver Center
02:11PM 40.0169 -102.5017 83° East 447 514 33,400 1,500 Climbing Denver Center
02:12PM 40.0322 -102.3519 82° East 442 509 34,900 720 Climbing Denver Center
02:13PM 40.0511 -102.1808 82° East 433 498 35,000  Climbing Denver Center
02:14PM 40.0672 -102.0333 82° East 431 496 35,000  Level Denver Center
02:15PM 40.0847 -101.8597 82° East 432 497 35,000  Level Denver Center
02:16PM 40.0967 -101.7361 83° East 432 497 35,000  Level Denver Center
02:17PM 40.1153 -101.5353 83° East 435 501 35,000  Level Denver Center
02:18PM 40.1294 -101.3864 83° East 436 502 35,000  Level Denver Center
02:19PM 40.1467 -101.2122 83° East 434 499 35,000  Level Denver Center
02:20PM 40.1611 -101.0625 83° East 435 501 35,000  Level Denver Center
02:22PM 40.1767 -100.8875 83° East 437 503 35,000  Level Denver Center
02:23PM 40.1906 -100.7364 83° East 438 504 35,000  Level Denver Center
02:24PM 40.2042 -100.5578 84° East 443 510 35,000  Level Denver Center
02:25PM 40.2061 -100.4025 89° East 447 514 35,000  Level Denver Center
02:26PM 40.2089 -100.2203 89° East 449 517 35,000  Level Denver Center
02:27PM 40.2117 -100.0633 89° East 452 520 35,000  Level Denver Center
02:28PM 40.2142 -99.8803 89° East 453 521 35,000  Level Denver Center
02:29PM 40.2161 -99.7222 89° East 455 524 35,000  Level Denver Center
02:30PM 40.2178 -99.5389 89° East 453 521 35,000  Level Denver Center
02:31PM 40.2194 -99.3806 89° East 454 522 35,000  Level Denver Center
02:32PM 40.2203 -99.1972 90° East 454 522 35,000  Level Denver Center
02:33PM 40.2211 -99.0406 90° East 452 520 35,000  Level Denver Center
02:34PM 40.2222 -98.8572 89° East 452 520 35,000  Level Denver Center
02:35PM 40.2214 -98.6861 90° East 452 520 35,000  Level Minneapolis Center
02:36PM 40.2233 -98.5250 89° East 449 517 35,000  Level Minneapolis Center
02:37PM 40.2222 -98.3597 90° East 450 518 35,000  Level Minneapolis Center
02:38PM 40.2214 -98.1975 90° East 450 518 35,000  Level Minneapolis Center
02:39PM 40.2228 -98.0367 89° East 448 516 35,000  Level Minneapolis Center
02:40PM 40.2219 -97.8403 90° East 448 516 35,000  Level Minneapolis Center
02:41PM 40.2211 -97.6778 90° East 448 516 35,000  Level Minneapolis Center
02:42PM 40.2197 -97.5144 91° East 449 517 35,000  Level Minneapolis Center
02:43PM 40.2175 -97.3500 91° East 451 519 35,000  Level Minneapolis Center
02:44PM 40.2158 -97.1872 91° East 451 519 35,000  Level Minneapolis Center
02:45PM 40.2131 -97.0233 91° East 450 518 35,000  Level Minneapolis Center
02:46PM 40.2100 -96.8244 91° East 454 522 35,000  Level Minneapolis Center
02:47PM 40.2075 -96.6617 91° East 451 519 35,000  Level Minneapolis Center
02:48PM 40.2042 -96.4978 91° East 451 519 35,000  Level Minneapolis Center
02:50PM 40.2028 -96.3358 91° East 449 517 35,000  Level Minneapolis Center
02:51PM 40.2058 -96.1742 89° East 446 513 35,000  Level Minneapolis Center
02:52PM 40.2506 -95.9922 72° East 440 506 35,000  Level Minneapolis Center
02:53PM 40.2842 -95.8403 74° East 437 503 35,000  Level Minneapolis Center
02:54PM 40.3203 -95.6881 73° East 438 504 35,000  Level Minneapolis Center
02:55PM 40.3544 -95.5339 74° East 440 506 35,000  Level Minneapolis Center
02:56PM 40.3900 -95.3786 73° East 444 511 35,000  Level Minneapolis Center
02:57PM 40.4247 -95.2233 74° East 445 512 35,000  Level Minneapolis Center
02:58PM 40.4667 -95.0358 74° East 447 514 35,000  Level Minneapolis Center
02:59PM 40.5011 -94.8775 74° East 451 519 35,000  Level Minneapolis Center
03:00PM 40.5372 -94.7181 73° East 454 522 35,000  Level Minneapolis Center
03:01PM 40.5719 -94.5561 74° East 456 525 35,000  Level Minneapolis Center
03:02PM 40.6067 -94.3931 74° East 462 532 35,000  Level Minneapolis Center
03:03PM 40.6400 -94.2294 75° East 463 533 35,000  Level Minneapolis Center
03:04PM 40.6825 -94.0311 74° East 468 539 35,000  Level Minneapolis Center
03:05PM 40.7153 -93.8664 75° East 469 540 35,000  Level Minneapolis Center
03:06PM 40.7525 -93.7000 73° East 471 542 35,000  Level Minneapolis Center
03:07PM 40.7811 -93.5658 74° East 471 542 35,000  Level Chicago Center
03:08PM 40.8144 -93.4000 75° East 470 541 35,000  Level Chicago Center
03:09PM 40.8481 -93.2344 75° East 469 540 35,000  Level Chicago Center
03:10PM 40.8811 -93.0692 75° East 468 539 35,000  Level Chicago Center
03:11PM 40.9217 -92.8697 75° East 468 539 35,000  Level Chicago Center
03:12PM 40.9547 -92.7044 75° East 466 536 35,000  Level Chicago Center
03:13PM 40.9872 -92.5375 75° East 468 539 35,000  Level Chicago Center
03:14PM 41.0197 -92.3728 75° East 465 535 35,000  Level Chicago Center
03:15PM 41.0456 -92.2061 78° East 464 534 35,000  Level Chicago Center
03:16PM 41.0700 -92.0050 81° East 462 532 35,000  Level Chicago Center
03:17PM 41.0900 -91.8386 81° East 462 532 35,000  Level Chicago Center
03:18PM 41.1117 -91.6719 80° East 461 531 35,000  Level Chicago Center
03:19PM 41.1306 -91.5067 81° East 463 533 35,000  Level Chicago Center
03:20PM 41.1519 -91.3389 80° East 460 529 35,000  Level Chicago Center
03:21PM 41.1714 -91.1719 81° East 459 528 35,000  Level Chicago Center
03:22PM 41.1947 -90.9703 81° East 460 529 35,000  Level Chicago Center
03:23PM 41.2136 -90.8017 81° East 460 529 35,000  Level Chicago Center
03:24PM 41.2331 -90.6342 81° East 459 528 35,000  Level Chicago Center
03:25PM 41.2519 -90.4653 81° East 461 531 35,000  Level Chicago Center
03:27PM 41.2706 -90.2978 82° East 456 525 35,000  Level Chicago Center
03:28PM 41.2889 -90.1275 82° East 461 531 35,000  Level Chicago Center
03:29PM 41.3081 -89.9578 81° East 462 532 35,000  Level Chicago Center
03:30PM 41.3297 -89.7564 82° East 458 527 35,000  Level Chicago Center
03:31PM 41.3472 -89.5867 82° East 460 529 35,000  Level Chicago Center
03:32PM 41.3647 -89.4172 82° East 462 532 35,000  Level Chicago Center
03:33PM 41.3831 -89.2503 82° East 457 526 35,000  Level Chicago Center
03:34PM 41.3981 -89.0731 84° East 460 529 35,000 480 Level Chicago Center
03:35PM 41.4147 -88.9053 82° East 462 532 36,000 900 Climbing Chicago Center
03:36PM 41.4311 -88.7389 82° East 457 526 36,900 480 Climbing Chicago Center
03:37PM 41.4506 -88.5344 83° East 467 537 37,000  Climbing Chicago Center
03:38PM 41.4656 -88.3658 83° East 463 533 37,000  Level Chicago Center
03:39PM 41.4819 -88.1942 83° East 467 537 37,000  Level Chicago Center
03:40PM 41.4986 -88.0233 83° East 473 544 37,000  Level Chicago Center
03:41PM 41.5228 -87.8417 80° East 465 535 37,000  Level Chicago Center
03:42PM 41.5478 -87.6731 79° East 463 533 37,000  Level Chicago Center
03:43PM 41.5717 -87.5031 79° East 466 536 37,000  Level Chicago Center
03:44PM 41.6017 -87.2967 79° East 471 542 37,000  Level Chicago Center
03:45PM 41.6256 -87.1250 79° East 471 542 37,000  Level Chicago Center
03:46PM 41.6494 -86.9539 79° East 471 542 37,000  Level Chicago Center
03:47PM 41.6708 -86.7808 81° East 473 544 37,000  Level Chicago Center
03:48PM 41.6731 -86.6008 89° East 469 540 37,000  Level Chicago Center
03:49PM 41.6719 -86.4272 90° East 469 540 37,000  Level Chicago Center
03:50PM 41.6722 -86.2533 90° East 469 540 37,000  Level Chicago Center
03:51PM 41.6694 -86.0444 91° East 469 540 37,000  Level Chicago Center
03:52PM 41.6675 -85.8717 91° East 468 539 37,000  Level Chicago Center
03:53PM 41.6653 -85.6989 91° East 466 536 37,000  Level Chicago Center
03:54PM 41.6642 -85.5358 90° East 467 537 37,000  Level Chicago Center
03:55PM 41.6572 -85.3239 92° East 473 544 37,000  Level Chicago Center
03:57PM 41.6561 -85.1483 90° East 482 555 37,000  Level Chicago Center
03:58PM 41.6531 -84.9719 91° East 480 552 37,000  Level Chicago Center
03:59PM 41.6497 -84.7953 91° East 477 549 37,000  Level Chicago Center
04:00PM 41.6456 -84.6178 92° East 478 550 37,000  Level Chicago Center
04:01PM 41.6417 -84.4067 91° East 478 550 37,000  Level Cleveland Center
04:02PM 41.6344 -84.2481 93° East 478 550 37,000  Level Cleveland Center
04:03PM 41.6297 -84.0697 92° East 478 550 37,000  Level Cleveland Center
04:04PM 41.6222 -83.8944 93° East 478 550 37,000  Level Cleveland Center
04:05PM 41.6192 -83.7108 91° East 483 556 37,000  Level Cleveland Center
04:06PM 41.6133 -83.5328 92° East 483 556 37,000  Level Cleveland Center
04:07PM 41.6075 -83.3547 92° East 483 556 37,000  Level Cleveland Center
04:08PM 41.6017 -83.1544 92° East 483 556 37,000  Level Cleveland Center
04:09PM 41.5953 -82.9739 93° East 483 556 37,000  Level Cleveland Center
04:10PM 41.5906 -82.7931 92° East 483 556 37,000  Level Cleveland Center
04:11PM 41.5833 -82.6181 93° East 476 548 37,000  Level Cleveland Center
04:12PM 41.5778 -82.4567 93° East 485 558 37,000  Level Cleveland Center
04:13PM 41.5703 -82.2733 93° East 485 558 37,000  Level Cleveland Center
04:14PM 41.5622 -82.0928 93° East 480 552 37,000  Level Cleveland Center
04:15PM 41.5561 -81.9178 93° East 480 552 37,000  Level Cleveland Center
04:16PM 41.5478 -81.7178 93° East 485 558 37,000  Level Cleveland Center
04:17PM 41.5392 -81.5319 93° East 485 558 37,000  Level Cleveland Center
04:18PM 41.5281 -81.3542 95° East 485 558 37,000  Level Cleveland Center
04:19PM 41.5186 -81.1767 94° East 480 552 37,000  Level Cleveland Center
04:20PM 41.5047 -80.9989 96° East 480 552 37,000  Level Cleveland Center
04:21PM 41.4864 -80.8269 98° East 475 547 37,000  Level Cleveland Center
04:22PM 41.4742 -80.6747 96° East 470 541 37,000  Level Cleveland Center
04:23PM 41.4575 -80.5028 97° East 465 535 37,000  Level Cleveland Center
04:24PM 41.4428 -80.3200 96° East 465 535 37,000  Level Cleveland Center
04:25PM 41.4278 -80.1678 97° East 465 535 37,000  Level Cleveland Center
04:26PM 41.4081 -79.9850 98° East 459 528 37,000  Level Cleveland Center
04:27PM 41.3925 -79.8192 97° East 459 528 37,000  Level Cleveland Center
04:28PM 41.3767 -79.6506 97° East 459 528 37,000  Level Cleveland Center
04:29PM 41.3628 -79.4958 97° East 459 528 37,000  Level Cleveland Center
04:30PM 41.3467 -79.3331 97° East 459 528 37,000  Level Cleveland Center
04:31PM 41.3258 -79.1536 99° East 454 522 37,000 -660 Level Cleveland Center
04:32PM 41.3069 -78.9853 98° East 448 516 35,700 -1,200 Descending Cleveland Center
04:33PM 41.2919 -78.8311 97° East 454 522 34,600 -900 Descending Cleveland Center
04:34PM 41.2725 -78.6464 98° East 461 531 34,000 -420 Descending Cleveland Center
04:35PM 41.2547 -78.4731 98° East 467 537 33,800 -480 Descending Cleveland Center
04:36PM 41.2308 -78.2644 99° East 477 549 33,000 -360 Descending New York Center
04:37PM 41.2050 -78.0767 100° East 464 534 33,000  Level New York Center
04:38PM 41.1872 -77.9203 99° East 464 534 33,000  Level New York Center
04:39PM 41.1661 -77.7500 99° East 469 540 33,000 -300 Level New York Center
04:40PM 41.1447 -77.5825 100° East 469 540 32,500 -840 Descending New York Center
04:41PM 41.1214 -77.4036 100° East 474 545 31,400 -1,200 Descending New York Center
04:42PM 41.0961 -77.2194 100° East 468 539 30,100 -1,500 Descending New York Center
04:43PM 41.0719 -77.0492 101° East 468 539 28,400 -1,860 Descending New York Center
04:44PM 41.0500 -76.8739 99° East 473 544 26,400 -1,980 Descending New York Center
04:45PM 41.0267 -76.7150 101° East 461 531 24,500 -1,980 Descending New York Center
04:46PM 40.9969 -76.5583 104° East 450 518 22,500 -1,980 Descending New York Center
04:47PM 40.9603 -76.4122 108° East 430 495 20,600 -1,980 Descending New York Center
04:48PM 40.9308 -76.2833 107° East 413 475 18,700 -1,800 Descending New York Center
04:49PM 40.8958 -76.1378 108° East 387 445 17,100 -1,620 Descending New York Center
04:50PM 40.8644 -76.0064 107° East 374 430 15,500 -1,680 Descending New York Center
04:51PM 40.8358 -75.8944 109° East 369 425 13,800 -1,260 Descending New York Center
04:52PM 40.8022 -75.7575 108° East 359 413 13,000 -420 Descending New York Center
04:53PM 40.7719 -75.6347 108° East 359 413 13,000  Level New York Center
04:54PM 40.7414 -75.5122 108° East 353 406 13,000  Level New York Center
04:55PM 40.7131 -75.3869 107° East 360 414 13,000  Level New York Center
04:56PM 40.6886 -75.2650 105° East 354 407 13,000 -840 Level New York Center
04:57PM 40.6597 -75.1453 108° East 347 399 11,400 -1,380 Descending New York Center
04:58PM 40.6064 -75.0656 131° Southeast 327 376 10,300 -720 Descending New York Center
04:59PM 40.5594 -74.9778 125° Southeast 303 349 10,000 -180 Descending New York Center
05:00PM 40.5297 -74.8803 112° Southeast 290 334 10,000  Level New York Center
05:01PM 40.5000 -74.7833 112° Southeast 317 365 10,000  Level New York TRACON
05:02PM 40.4667 -74.6833 114° Southeast 307 353 10,000  Level New York TRACON
05:03PM 40.4333 -74.5833 114° Southeast 306 352 10,000 -180 Level New York TRACON
05:04PM 40.4500 -74.4667 79° East 319 367 9,700 -900 Descending New York TRACON
05:05PM 40.4833 -74.3500 69° East 311 358 8,300 -1,320 Descending New York TRACON
05:06PM 40.5000 -74.2500 78° East 306 352 7,100 -1,080 Descending New York TRACON
05:07PM 40.5333 -74.1500 66° East 307 353 6,200 -1,140 Descending New York TRACON
05:08PM 40.5833 -74.0667 52° Northeast 304 350 4,900 -1,140 Descending New York TRACON
05:09PM 40.6667 -74.0333 17° North 288 331 4,000 -480 Descending New York TRACON
05:10PM 40.7333 -74.0167 11° North 287 330 4,000 -60 Level New York TRACON
05:11PM 40.8167 -73.9833 17° North 281 323 3,900 -480 Descending New York TRACON
05:12PM 40.8667 -73.9167 45° Northeast 248 285 3,000 -720 Descending New York TRACON
05:13PM 40.9167 -73.8667 37° Northeast 214 246 2,500 -540 Descending New York TRACON